Time;durP1;ratioP1;P1;durP2;ratioP2;P2;SDS_P1;SDS_P2;PMS_P1;PMS_P2;Temp;Humidity;BMP_temperature;BMP_pressure;BME280_temperature;BME280_humidity;BME280_pressure;Samples;Min_cycle;Max_cycle;Signal;HPM_P1;HPM_P2
2024/01/30 00:00:46;;;;;;;;;;;;;;;;;;;;;
2024/01/30 00:05:10;;;;;;;79.60;29.60;;;;;;;-1.37;77.49;101918.07;127110;1293;114833;-66
2024/01/30 00:09:13;;;;;;;71.70;26.80;;;;;;;-1.42;77.62;101915.69;122665;1293;5405677;-64
2024/01/30 00:17:38;;;;;;;58.30;23.60;;;;;;;-1.47;77.58;101916.08;125682;1301;636155;-64
2024/01/30 00:21:41;;;;;;;55.70;22.00;;;;;;;-1.52;77.88;101916.98;127910;1300;128902;-66
2024/01/30 00:25:44;;;;;;;55.60;20.50;;;;;;;-1.55;77.80;101914.98;126183;1293;115054;-63
2024/01/30 00:29:41;;;;;;;;;;;;;;;;;;;;;
2024/01/30 00:33:42;;;;;;;;;;;;;;;;;;;;;
2024/01/30 00:37:31;;;;;;;;;;;;;;;;;;;;;
2024/01/30 00:41:50;;;;;;;;;;;;;;;;;;;;;
2024/01/30 00:45:52;;;;;;;;;;;;;;;;;;;;;
2024/01/30 00:49:53;;;;;;;35.20;14.10;;;;;;;-1.64;78.74;101917.53;127736;1303;114802;-64
2024/01/30 00:53:55;;;;;;;37.50;13.90;;;;;;;-1.65;79.02;101925.23;123640;1286;5592358;-65
2024/01/30 00:57:57;;;;;;;29.00;13.60;;;;;;;-1.66;79.00;101926.63;126703;1292;115059;-65
2024/01/30 01:01:59;;;;;;;33.60;13.40;;;;;;;-1.66;78.58;101925.05;125572;1304;114842;-65
2024/01/30 01:05:45;;;;;;;28.30;12.20;;;;;;;-1.66;79.07;101921.17;124656;1311;114910;-64
2024/01/30 01:13:59;;;;;;;26.50;12.10;;;;;;;-1.66;79.20;101924.67;126387;1293;636037;-64
2024/01/30 01:18:00;;;;;;;29.00;11.70;;;;;;;-1.70;79.13;101926.67;127849;1273;128725;-63
2024/01/30 01:21:59;;;;;;;;;;;;;;;;;;;;;
2024/01/30 01:26:03;;;;;;;27.80;11.80;;;;;;;-1.74;79.34;101922.72;123515;1290;5413290;-63
2024/01/30 01:30:05;;;;;;;21.10;9.90;;;;;;;-1.75;79.14;101916.20;125337;1321;115490;-64
2024/01/30 01:33:57;;;;;;;;;;;;;;;;;;;;;
2024/01/30 01:46:25;;;;;;;25.00;11.70;;;;;;;-1.83;79.31;101910.21;128516;1295;129008;-64
2024/01/30 01:50:26;;;;;;;;;;;;;;;;;;;;;
2024/01/30 01:54:21;;;;;;;23.80;9.60;;;;;;;-1.86;79.32;101907.52;122329;1303;5456496;-64
2024/01/30 01:58:14;;;;;;;;;;;;;;;;;;;;;
2024/01/30 02:02:19;;;;;;;20.40;9.20;;;;;;;-1.88;79.62;101906.92;124569;1329;114968;-64
2024/01/30 02:06:18;;;;;;;;;;;;;;;;;;;;;
2024/01/30 02:14:42;;;;;;;;;;;;;;;;;;;;;
2024/01/30 02:18:45;;;;;;;;;;;;;;;;;;;;;
2024/01/30 02:22:40;;;;;;;17.80;8.10;;;;;;;-1.97;80.14;101899.31;126549;1301;115034;-64
2024/01/30 02:26:18;;;;;;;;;;;;;;;;;;;;;
2024/01/30 02:30:18;;;;;;;;;;;;;;;;;;;;;
2024/01/30 02:38:41;;;;;;;17.20;9.20;;;;;;;-2.00;79.85;101898.20;126479;1295;637219;-65
2024/01/30 02:42:35;;;;;;;;;;;;;;;;;;;;;
2024/01/30 02:46:39;;;;;;;14.20;7.60;;;;;;;-2.00;80.51;101899.42;127596;1279;114952;-64
2024/01/30 02:50:47;;;;;;;8.80;4.90;;;;;;;-1.95;81.45;101899.73;122429;1304;5417030;-64
2024/01/30 02:59:09;;;;;;;16.50;8.30;;;;;;;-1.71;81.56;101901.05;126427;1295;636148;-64
2024/01/30 03:03:10;;;;;;;;;;;;;;;;;;;;;
2024/01/30 03:07:14;;;;;;;15.40;8.00;;;;;;;-1.73;81.53;101892.45;126659;1289;114898;-64
2024/01/30 03:11:15;;;;;;;14.00;8.20;;;;;;;-1.74;80.90;101898.20;122177;1296;5432082;-64
2024/01/30 03:15:15;;;;;;;17.50;8.20;;;;;;;-1.76;80.99;101897.98;124954;1325;115052;-64
2024/01/30 03:19:08;;;;;;;;;;;;;;;;;;;;;
2024/01/30 03:27:20;;;;;;;20.80;11.30;;;;;;;-1.64;81.51;101893.55;126223;1292;636118;-64
2024/01/30 03:31:24;;;;;;;23.10;12.30;;;;;;;-1.63;81.78;101893.23;128241;1278;128925;-64
2024/01/30 03:35:11;;;;;;;24.10;9.70;;;;;;;-1.62;81.47;101883.27;127483;1287;114940;-64
2024/01/30 03:39:24;;;;;;;24.90;11.80;;;;;;;-1.62;81.43;101879.21;123340;1296;5426521;-63
2024/01/30 03:43:26;;;;;;;21.50;10.50;;;;;;;-1.65;81.58;101878.46;125616;1319;114907;-64
2024/01/30 03:55:59;;;;;;;25.70;13.40;;;;;;;-1.63;82.03;101875.52;125786;1300;642443;-64
2024/01/30 04:00:04;;;;;;;22.00;10.90;;;;;;;-1.63;82.13;101883.77;127816;1277;128798;-66
2024/01/30 04:04:05;;;;;;;24.20;11.00;;;;;;;-1.62;82.08;101869.79;126757;1293;114968;-64
2024/01/30 04:07:56;;;;;;;20.50;11.10;;;;;;;-1.58;82.35;101876.20;121799;1319;5403380;-64
2024/01/30 04:11:57;;;;;;;19.60;10.60;;;;;;;-1.59;81.83;101882.65;124831;1327;116587;-64
2024/01/30 04:20:12;;;;;;;;;;;;;;;;;;;;;
2024/01/30 04:28:22;;;;;;;20.30;10.80;;;;;;;-1.63;81.62;101871.51;126950;1307;114906;-64
2024/01/30 04:32:19;;;;;;;24.70;11.20;;;;;;;-1.66;81.29;101871.96;122281;1311;5423793;-64
2024/01/30 04:36:13;;;;;;;;;;;;;;;;;;;;;
2024/01/30 04:39:55;;;;;;;;;;;;;;;;;;;;;
2024/01/30 04:48:17;;;;;;;23.60;11.80;;;;;;;-1.73;81.85;101880.00;126556;1293;636200;-64
2024/01/30 04:52:20;;;;;;;20.40;10.90;;;;;;;-1.78;82.29;101884.42;127929;1274;128771;-64
2024/01/30 04:56:22;;;;;;;20.90;10.20;;;;;;;-1.83;81.78;101881.33;126501;1309;114905;-65
2024/01/30 05:00:12;;;;;;;19.60;10.40;;;;;;;-1.87;81.58;101883.32;122170;1297;5402774;-67
2024/01/30 05:04:16;;;;;;;21.90;10.40;;;;;;;-1.89;81.44;101881.69;125846;1299;114891;-67
2024/01/30 05:08:17;;;;;;;19.10;10.40;;;;;;;-1.92;81.60;101893.16;124946;1306;114984;-64
2024/01/30 05:12:16;;;;;;;23.70;11.90;;;;;;;-1.95;81.81;101890.25;123511;1319;129739;-64
2024/01/30 05:16:17;;;;;;;;;;;;;;;;;;;;;
2024/01/30 05:24:32;;;;;;;;;;;;;;;;;;;;;
2024/01/30 05:28:26;;;;;;;18.50;9.10;;;;;;;-1.97;82.57;101884.42;127563;1287;128577;-64
2024/01/30 05:32:29;;;;;;;21.30;10.60;;;;;;;-1.93;82.49;101881.56;126588;1287;114885;-65
2024/01/30 05:36:13;;;;;;;17.80;9.40;;;;;;;-1.91;82.35;101872.52;124612;1321;5413087;-65
2024/01/30 05:43:36;;;;;;;23.40;9.70;;;;;;;-1.94;82.28;101883.30;124511;1305;129892;-65
2024/01/30 05:51:58;;;;;;;19.20;11.00;;;;;;;-1.96;82.25;101883.25;126339;1295;636120;-66
2024/01/30 05:56:01;;;;;;;21.40;11.50;;;;;;;-2.02;82.21;101889.92;128551;1278;128950;-63
2024/01/30 06:00:04;;;;;;;21.00;9.60;;;;;;;-2.05;82.05;101888.95;128370;1278;114937;-67
2024/01/30 06:08:08;;;;;;;25.30;13.60;;;;;;;-2.09;82.39;101892.52;126108;1315;115153;-66
2024/01/30 06:12:11;;;;;;;27.30;12.60;;;;;;;-2.11;82.50;101899.25;124885;1326;116648;-64
2024/01/30 06:16:10;;;;;;;31.50;13.40;;;;;;;-2.13;82.42;101893.63;124747;1326;114974;-64
2024/01/30 06:20:10;;;;;;;28.40;13.10;;;;;;;-2.13;82.39;101899.74;124586;1331;128725;-67
2024/01/30 06:23:55;;;;;;;;;;;;;;;;;;;;;
2024/01/30 06:32:16;;;;;;;35.80;15.00;;;;;;;-2.12;82.13;101894.54;126291;1298;636228;-63
2024/01/30 06:36:19;;;;;;;36.40;15.10;;;;;;;-2.15;82.79;101897.42;128396;1279;128995;-62
2024/01/30 06:40:08;;;;;;;;;;;;;;;;;;;;;
2024/01/30 06:44:13;;;;;;;33.70;14.30;;;;;;;-2.15;82.49;101897.95;123305;1287;5406996;-63
2024/01/30 06:48:14;;;;;;;36.00;15.70;;;;;;;-2.15;82.53;101904.61;125649;1317;115417;-63
2024/01/30 06:56:35;;;;;;;38.20;15.10;;;;;;;-2.09;82.50;101889.88;126359;1297;636340;-66
2024/01/30 07:00:38;;;;;;;42.60;15.50;;;;;;;-2.08;83.02;101900.77;128329;1278;128403;-64
2024/01/30 07:04:37;;;;;;;;;;;;;;;;;;;;;
2024/01/30 07:08:30;;;;;;;;;;;;;;;;;;;;;
2024/01/30 07:12:21;;;;;;;38.90;14.40;;;;;;;-1.97;82.89;101893.89;125291;1305;114918;-65
2024/01/30 07:16:13;;;;;;;38.50;15.90;;;;;;;-1.92;82.84;101894.18;124935;1308;114993;-63
2024/01/30 07:20:14;;;;;;;30.00;13.30;;;;;;;-1.87;83.06;101894.70;124556;1313;130043;-64
2024/01/30 07:28:23;;;;;;;;;;;;;;;;;;;;;
2024/01/30 07:32:25;;;;;;;;;;;;;;;;;;;;;
2024/01/30 07:36:28;;;;;;;38.00;14.40;;;;;;;-1.53;83.72;101904.52;126349;1312;114914;-63
2024/01/30 07:40:33;;;;;;;27.90;12.90;;;;;;;-1.38;84.21;101903.34;121889;1299;5468544;-63
2024/01/30 07:44:23;;;;;;;25.30;12.30;;;;;;;-1.14;84.27;101907.60;124530;1331;115559;-63
2024/01/30 07:52:44;;;;;;;22.50;11.10;;;;;;;-0.54;84.45;101907.96;126044;1307;637234;-64
2024/01/30 07:56:23;;;;;;;24.10;11.00;;;;;;;-0.27;84.45;101904.86;127561;1294;128875;-64
2024/01/30 08:00:07;;;;;;;;;;;;;;;0.03;84.71;101907.55;127841;1281;114797;-64
2024/01/30 08:04:08;;;;;;;17.90;9.10;;;;;;;0.33;84.66;101904.63;127218;1288;115253;-65
2024/01/30 08:08:12;;;;;;;13.70;7.50;;;;;;;0.71;84.73;101898.26;122211;1308;114843;-63
2024/01/30 08:12:05;;;;;;;;;;;;;;;;;;;;;
2024/01/30 08:16:07;;;;;;;14.60;6.80;;;;;;;1.46;84.47;101892.54;124963;1325;114885;-64
2024/01/30 08:20:06;;;;;;;;;;;;;;;;;;;;;
2024/01/30 08:24:00;;;;;;;;;;;;;;;;;;;;;
2024/01/30 08:28:27;;;;;;;12.30;6.40;;;;;;;2.51;83.54;101881.24;126057;1295;634991;-65
2024/01/30 08:32:29;;;;;;;14.10;7.10;;;;;;;2.78;83.11;101876.00;127877;1299;128242;-64
2024/01/30 08:40:32;;;;;;;13.30;6.50;;;;;;;3.37;82.21;101873.95;122201;1317;5429599;-63
2024/01/30 08:44:13;;;;;;;58.10;21.80;;;;;;;3.69;82.14;101871.27;125031;1302;115037;-64
2024/01/30 08:56:28;;;;;;;;;;;;;;;;;;;;;
2024/01/30 09:00:23;;;;;;;17.80;11.40;;;;;;;4.68;80.55;101864.95;127980;1302;127837;-64
2024/01/30 09:04:26;;;;;;;15.80;8.30;;;;;;;4.89;79.71;101863.35;127782;1286;114976;-64
2024/01/30 09:08:21;;;;;;;;;;;;;;;;;;;;;
2024/01/30 09:12:16;;;;;;;;;;;;;;;;;;;;;
2024/01/30 09:16:19;;;;;;;8.00;4.40;;;;;;;5.41;78.39;101863.44;126062;1293;114875;-64
2024/01/30 09:20:09;;;;;;;;;;;;;;;;;;;;;
2024/01/30 09:28:21;;;;;;;19.20;12.50;;;;;;;5.96;76.84;101854.17;126395;1295;636019;-64
2024/01/30 09:32:17;;;;;;;;;;;;;;;;;;;;;
2024/01/30 09:36:20;;;;;;;;;;;;;;;;;;;;;
2024/01/30 09:40:14;;;;;;;;;;;;;;;;;;;;;
2024/01/30 09:44:05;;;;;;;;;;;;;;;;;;;;;
2024/01/30 09:47:55;;;;;;;;;;;;;;;;;;;;;
2024/01/30 09:51:36;;;;;;;;;;;;;;;;;;;;;
2024/01/30 09:59:58;;;;;;;13.20;6.90;;;;;;;7.25;72.80;101822.11;126313;1299;636000;-66
2024/01/30 10:04:01;;;;;;;8.30;4.20;;;;;;;7.39;72.66;101819.10;127942;1282;129115;-66
2024/01/30 10:08:09;;;;;;;10.40;6.60;;;;;;;7.52;71.32;101814.48;126587;1290;114931;-65
2024/01/30 10:11:52;;;;;;;;;;;;;;;;;;;;;
2024/01/30 10:15:52;;;;;;;;;;;;;;;;;;;;;
2024/01/30 10:24:07;;;;;;;5.30;2.50;;;;;;;7.99;69.39;101792.35;126496;1293;636038;-64
2024/01/30 10:28:10;;;;;;;9.30;5.10;;;;;;;8.07;68.60;101792.77;128479;1277;129062;-66
2024/01/30 10:32:14;;;;;;;10.30;5.20;;;;;;;8.17;68.60;101791.73;127082;1287;115378;-67
2024/01/30 10:36:15;;;;;;;5.30;3.40;;;;;;;8.28;67.95;101793.88;122081;1302;5403387;-65
2024/01/30 10:40:07;;;;;;;10.60;5.50;;;;;;;8.31;66.95;101794.34;124706;1310;114873;-65
2024/01/30 10:48:34;;;;;;;7.60;3.90;;;;;;;8.25;66.53;101788.05;126928;1295;636011;-66
2024/01/30 10:52:36;;;;;;;7.70;4.80;;;;;;;8.19;66.52;101776.20;127281;1287;127352;-65
2024/01/30 10:56:38;;;;;;;5.20;3.30;;;;;;;8.21;66.07;101773.67;126888;1287;115821;-65
2024/01/30 11:00:34;;;;;;;;;;;;;;;;;;;;;
2024/01/30 11:04:36;;;;;;;5.20;3.00;;;;;;;8.36;65.12;101763.48;124927;1311;115451;-64
2024/01/30 11:12:54;;;;;;;;;;;;;;;;;;;;;
2024/01/30 11:17:03;;;;;;;5.70;3.40;;;;;;;8.67;64.43;101746.59;128610;1275;128871;-65
2024/01/30 11:25:27;;;;;;;9.40;6.70;;;;;;;8.82;63.53;101741.14;126368;1295;635983;-64
2024/01/30 11:29:14;;;;;;;11.00;5.30;;;;;;;8.83;63.28;101738.47;127653;1287;128257;-65
2024/01/30 11:33:18;;;;;;;12.20;7.10;;;;;;;8.84;63.01;101733.09;126288;1295;114861;-65
2024/01/30 11:37:20;;;;;;;8.70;5.50;;;;;;;8.86;62.52;101725.55;123310;1310;5403295;-65
2024/01/30 11:40:59;;;;;;;8.50;5.00;;;;;;;8.90;62.28;101719.62;124607;1328;114735;-65
2024/01/30 11:44:50;;;;;;;7.90;5.60;;;;;;;8.97;62.02;101716.27;123851;1334;114900;-65
2024/01/30 11:53:15;;;;;;;6.40;4.50;;;;;;;9.22;61.16;101702.40;126400;1295;635210;-66
2024/01/30 11:57:10;;;;;;;8.20;6.20;;;;;;;9.33;60.48;101697.36;127510;1297;128888;-64
2024/01/30 12:01:16;;;;;;;6.20;4.30;;;;;;;9.45;60.46;101692.64;126700;1300;114929;-64
2024/01/30 12:05:09;;;;;;;;;;;;;;;;;;;;;
2024/01/30 12:09:18;;;;;;;4.80;3.90;;;;;;;9.60;60.19;101678.90;125538;1323;114977;-65
2024/01/30 12:12:59;;;;;;;7.70;3.90;;;;;;;9.62;59.21;101680.11;124377;1316;114975;-65
2024/01/30 12:16:59;;;;;;;6.00;4.30;;;;;;;9.63;59.11;101674.92;124284;1332;115091;-65
2024/01/30 12:25:38;;;;;;;10.10;4.60;;;;;;;9.77;58.73;101667.10;125688;1299;636772;-66
2024/01/30 12:29:35;;;;;;;7.60;4.00;;;;;;;9.83;58.61;101664.11;128286;1273;128466;-65
2024/01/30 12:33:28;;;;;;;;;;;;;;;;;;;;;
2024/01/30 12:37:24;;;;;;;7.00;4.40;;;;;;;9.90;57.48;101654.10;124724;1278;5485232;-65
2024/01/30 12:41:28;;;;;;;6.10;4.10;;;;;;;9.92;57.40;101649.05;127857;1286;114951;-67
2024/01/30 12:45:26;;;;;;;;;;;;;;;;;;;;;
2024/01/30 12:49:28;;;;;;;12.30;7.40;;;;;;;9.92;57.02;101645.67;125709;1301;115250;-66
2024/01/30 12:53:29;;;;;;;8.50;4.40;;;;;;;9.87;56.84;101646.14;124617;1313;129370;-64
2024/01/30 12:57:27;;;;;;;;;;;;;;;;;;;;;
2024/01/30 13:05:51;;;;;;;9.30;6.80;;;;;;;9.71;56.66;101644.92;128149;1278;128244;-65
2024/01/30 13:09:53;;;;;;;7.80;6.10;;;;;;;9.65;56.57;101639.54;127086;1290;114929;-65
2024/01/30 13:13:55;;;;;;;7.00;4.50;;;;;;;9.59;56.61;101639.16;121899;1319;5486493;-64
2024/01/30 13:17:42;;;;;;;9.10;5.10;;;;;;;9.52;56.56;101638.61;125257;1321;115044;-65
2024/01/30 13:21:35;;;;;;;;;;;;;;;;;;;;;
2024/01/30 13:25:21;;;;;;;8.00;5.60;;;;;;;9.35;56.65;101629.38;123724;1327;129866;-65
2024/01/30 13:33:44;;;;;;;11.30;6.20;;;;;;;9.23;56.46;101631.95;126443;1295;636390;-65
2024/01/30 13:37:48;;;;;;;7.00;4.50;;;;;;;9.12;56.61;101631.84;128345;1279;128972;-64
2024/01/30 13:41:49;;;;;;;8.60;4.40;;;;;;;9.03;56.58;101629.71;127865;1294;114933;-66
2024/01/30 13:45:51;;;;;;;8.10;5.60;;;;;;;8.93;56.59;101628.33;122757;1293;5412527;-65
2024/01/30 13:49:52;;;;;;;6.40;3.70;;;;;;;8.82;56.57;101631.95;126161;1296;115239;-65
2024/01/30 13:53:44;;;;;;;10.80;5.40;;;;;;;8.73;56.67;101628.91;125904;1315;115062;-65
2024/01/30 13:57:45;;;;;;;;;;;;;;;;;;;;;
2024/01/30 14:05:49;;;;;;;11.30;6.70;;;;;;;8.50;56.61;101620.83;126551;1296;636504;-65
2024/01/30 14:09:52;;;;;;;9.40;6.00;;;;;;;8.43;56.55;101617.89;128482;1289;127862;-65
2024/01/30 14:22:03;;;;;;;10.10;5.60;;;;;;;8.30;56.54;101616.54;125735;1302;115198;-64
2024/01/30 14:26:05;;;;;;;8.50;5.40;;;;;;;8.25;56.46;101615.56;125482;1313;129763;-66
2024/01/30 14:30:06;;;;;;;9.20;6.20;;;;;;;8.21;56.53;101607.28;125179;1307;114855;-66
2024/01/30 14:38:33;;;;;;;10.50;6.40;;;;;;;8.13;56.91;101611.69;125180;1304;637034;-65
2024/01/30 14:42:13;;;;;;;;;;;;;;;;;;;;;
2024/01/30 14:46:15;;;;;;;;;;;;;;;;;;;;;
2024/01/30 14:50:21;;;;;;;;;;;;;;;;;;;;;
2024/01/30 14:54:23;;;;;;;9.80;5.60;;;;;;;7.85;57.23;101618.77;124513;1324;115214;-65
2024/01/30 15:02:48;;;;;;;12.70;6.00;;;;;;;7.67;57.53;101619.96;125629;1299;636351;-64
2024/01/30 15:06:48;;;;;;;;;;;;;;;;;;;;;
2024/01/30 15:10:51;;;;;;;10.70;5.80;;;;;;;7.41;57.81;101621.06;126173;1292;114857;-64
2024/01/30 15:14:52;;;;;;;11.60;4.90;;;;;;;7.28;57.77;101623.02;121764;1304;5456066;-64
2024/01/30 15:27:15;;;;;;;12.00;6.30;;;;;;;6.88;58.52;101623.92;127864;1285;129052;-62
2024/01/30 15:31:23;;;;;;;12.00;6.30;;;;;;;6.72;58.52;101623.41;126138;1314;114757;-64
2024/01/30 15:47:54;;;;;;;25.00;14.40;;;;;;;6.17;59.31;101619.94;125752;1299;638899;-64
2024/01/30 15:51:56;;;;;;;17.10;9.30;;;;;;;6.02;59.47;101619.89;128085;1283;129868;-66
2024/01/30 15:55:58;;;;;;;20.70;12.20;;;;;;;5.88;59.73;101622.47;127061;1289;114847;-64
2024/01/30 16:00:03;;;;;;;23.70;11.00;;;;;;;5.74;59.92;101628.98;122175;1298;5435302;-66
2024/01/30 16:04:26;;;;;;;16.70;10.10;;;;;;;5.61;60.30;101629.96;125760;1299;114923;-65
2024/01/30 16:08:08;;;;;;;15.00;8.60;;;;;;;5.49;60.43;101628.99;124674;1305;114942;-65
2024/01/30 16:20:32;;;;;;;13.80;7.70;;;;;;;5.20;61.20;101633.59;128270;1282;128978;-65
2024/01/30 16:24:36;;;;;;;18.50;11.50;;;;;;;5.13;61.49;101634.88;126697;1295;114927;-65
2024/01/30 16:28:43;;;;;;;16.50;10.20;;;;;;;5.06;61.78;101640.39;121663;1308;5424038;-64
2024/01/30 16:32:31;;;;;;;14.70;10.00;;;;;;;5.00;61.78;101642.91;125065;1326;114888;-65
2024/01/30 16:36:31;;;;;;;18.30;10.30;;;;;;;4.95;62.14;101643.12;125053;1327;114932;-64
2024/01/30 16:40:29;;;;;;;39.20;23.60;;;;;;;4.90;62.27;101640.12;123622;1337;114907;-65
2024/01/30 16:44:40;;;;;;;;;;;;;;;;;;;;;
2024/01/30 16:48:44;;;;;;;19.20;11.80;;;;;;;4.83;62.70;101643.70;128364;1279;129031;-63
2024/01/30 16:52:47;;;;;;;22.50;13.30;;;;;;;4.81;62.79;101655.73;127651;1297;115035;-65
2024/01/30 16:56:50;;;;;;;23.10;14.20;;;;;;;4.80;62.88;101657.86;122712;1293;5416411;-65
2024/01/30 17:04:58;;;;;;;27.20;14.90;;;;;;;4.80;63.06;101664.41;125225;1315;114903;-65
2024/01/30 17:08:56;;;;;;;22.20;12.70;;;;;;;4.81;63.20;101666.70;124211;1327;129642;-65
2024/01/30 17:17:04;;;;;;;;;;;;;;;;;;;;;
2024/01/30 17:21:09;;;;;;;26.70;13.50;;;;;;;4.79;63.52;101662.66;128548;1278;128848;-65
2024/01/30 17:24:53;;;;;;;24.20;12.30;;;;;;;4.75;63.42;101659.83;128249;1280;114943;-65
2024/01/30 17:28:41;;;;;;;23.60;13.20;;;;;;;4.69;63.32;101663.75;127010;1292;114973;-65
2024/01/30 17:33:06;;;;;;;23.60;14.50;;;;;;;4.66;63.30;101661.98;122223;1298;115018;-64
2024/01/30 17:36:42;;;;;;;30.10;15.10;;;;;;;4.62;63.72;101662.70;125237;1320;114875;-65
2024/01/30 17:40:43;;;;;;;22.40;14.90;;;;;;;4.56;63.72;101666.25;125406;1308;114930;-66
2024/01/30 17:44:36;;;;;;;;;;;;;;;;;;;;;
2024/01/30 17:48:59;;;;;;;24.20;12.70;;;;;;;4.48;63.99;101662.73;126077;1297;635864;-65
2024/01/30 17:56:52;;;;;;;;;;;;;;;;;;;;;
2024/01/30 18:00:57;;;;;;;22.30;12.80;;;;;;;4.27;64.39;101665.61;122630;1304;5431822;-65
2024/01/30 18:04:57;;;;;;;18.10;11.20;;;;;;;4.20;64.58;101658.01;125482;1301;114859;-67
2024/01/30 18:17:08;;;;;;;22.80;12.80;;;;;;;3.97;64.93;101657.67;127700;1288;128773;-64
2024/01/30 18:21:02;;;;;;;;;;;;;;;;;;;;;
2024/01/30 18:24:35;;;;;;;;;;;;;;;;;;;;;
2024/01/30 18:28:17;;;;;;;25.50;13.40;;;;;;;3.70;65.17;101669.51;127158;1299;114956;-67
2024/01/30 18:32:08;;;;;;;;;;;;;;;;;;;;;
2024/01/30 18:36:07;;;;;;;;;;;;;;;;;;;;;
2024/01/30 18:40:01;;;;;;;;;;;;;;;;;;;;;
2024/01/30 18:44:21;;;;;;;25.30;15.50;;;;;;;3.42;65.56;101668.58;126316;1300;636184;-65
2024/01/30 18:48:15;;;;;;;;;;;;;;;;;;;;;
2024/01/30 18:52:16;;;;;;;;;;;;;;;;;;;;;
2024/01/30 18:56:05;;;;;;;30.10;14.90;;;;;;;3.18;66.12;101676.45;123096;1290;5423387;-65
2024/01/30 19:00:15;;;;;;;28.00;14.90;;;;;;;3.12;66.34;101672.56;126136;1309;115181;-63
2024/01/30 19:04:10;;;;;;;;;;;;;;;;;;;;;
2024/01/30 19:08:12;;;;;;;25.70;13.40;;;;;;;2.97;66.38;101672.14;125697;1313;114906;-67
2024/01/30 19:16:32;;;;;;;25.10;14.60;;;;;;;2.87;66.70;101674.05;125711;1307;638781;-66
2024/01/30 19:20:33;;;;;;;;;;;;;;;;;;;;;
2024/01/30 19:24:36;;;;;;;35.90;16.60;;;;;;;2.66;66.72;101669.70;126294;1297;114918;-64
2024/01/30 19:28:44;;;;;;;;;;;;;;;;;;;;;
2024/01/30 19:32:36;;;;;;;26.70;14.30;;;;;;;2.48;67.02;101674.36;125449;1305;114979;-63
2024/01/30 19:40:58;;;;;;;29.00;15.90;;;;;;;2.32;67.26;101676.02;126408;1311;635936;-65
2024/01/30 19:44:43;;;;;;;32.30;16.90;;;;;;;2.22;67.57;101677.73;128049;1282;127964;-67
2024/01/30 19:48:47;;;;;;;35.40;17.50;;;;;;;2.16;67.65;101677.16;126722;1293;115916;-65
2024/01/30 19:52:44;;;;;;;;;;;;;;;;;;;;;
2024/01/30 19:56:47;;;;;;;28.00;14.50;;;;;;;2.01;67.69;101676.33;125257;1303;115151;-66
2024/01/30 20:04:37;;;;;;;;;;;;;;;;;;;;;
2024/01/30 20:08:41;;;;;;;35.80;20.00;;;;;;;1.88;68.34;101677.81;128197;1267;129072;-64
2024/01/30 20:12:44;;;;;;;33.80;19.70;;;;;;;1.85;68.48;101685.35;127904;1288;115019;-65
2024/01/30 20:16:51;;;;;;;59.50;25.60;;;;;;;1.85;68.73;101684.30;125811;1287;5461984;-65
2024/01/30 20:20:45;;;;;;;;;;;;;;;;;;;;;
2024/01/30 20:24:43;;;;;;;;;;;;;;;;;;;;;
2024/01/30 20:33:06;;;;;;;43.60;21.40;;;;;;;1.89;69.46;101688.73;125767;1300;636060;-63
2024/01/30 20:36:56;;;;;;;42.90;18.60;;;;;;;1.87;69.75;101686.77;127541;1283;128908;-66
2024/01/30 20:40:50;;;;;;;;;;;;;;;;;;;;;
2024/01/30 20:45:03;;;;;;;;;;;;;;;;;;;;;
2024/01/30 20:49:03;;;;;;;;;;;;;;;;;;;;;
2024/01/30 20:57:07;;;;;;;43.80;20.90;;;;;;;1.79;70.10;101688.99;126159;1305;635904;-62
2024/01/30 21:01:10;;;;;;;47.00;21.30;;;;;;;1.77;70.35;101681.58;128372;1279;128735;-62
2024/01/30 21:05:12;;;;;;;39.10;18.50;;;;;;;1.76;70.33;101678.58;126730;1294;115090;-65
2024/01/30 21:08:54;;;;;;;;;;;;;;;;;;;;;
2024/01/30 21:12:57;;;;;;;25.80;13.00;;;;;;;1.76;70.48;101684.40;124420;1324;115000;-64
2024/01/30 21:21:11;;;;;;;40.50;19.30;;;;;;;1.77;70.86;101692.49;125628;1300;636200;-63
2024/01/30 21:29:04;;;;;;;38.70;19.60;;;;;;;1.72;71.09;101697.05;133113;1271;112602;-64
2024/01/30 21:33:06;;;;;;;44.30;19.30;;;;;;;1.70;71.05;101696.83;126641;1279;5404239;-63
2024/01/30 21:37:06;;;;;;;42.80;21.10;;;;;;;1.67;71.17;101696.11;126135;1294;114841;-63
2024/01/30 21:49:31;;;;;;;;;;;;;;;;;;;;;
2024/01/30 21:53:34;;;;;;;68.60;30.30;;;;;;;1.56;71.53;101685.96;128088;1289;129209;-65
2024/01/30 22:00:58;;;;;;;85.30;32.60;;;;;;;1.49;71.63;101690.81;122785;1308;5408807;-64
2024/01/30 22:05:02;;;;;;;84.10;35.10;;;;;;;1.45;71.90;101696.06;127223;1288;116599;-63
2024/01/30 22:08:56;;;;;;;80.20;32.70;;;;;;;1.40;71.80;101698.30;125790;1309;115044;-62
2024/01/30 22:12:56;;;;;;;89.00;35.30;;;;;;;1.36;71.98;101699.48;124891;1323;129667;-62
2024/01/30 22:16:57;;;;;;;59.50;24.70;;;;;;;1.31;71.98;101698.20;124256;1327;114985;-63
2024/01/30 22:20:45;;;;;;;87.80;36.50;;;;;;;1.28;71.99;101697.98;123411;1338;115310;-64
2024/01/30 22:25:04;;;;;;;85.70;38.10;;;;;;;1.28;72.36;101695.17;126447;1306;635979;-63
2024/01/30 22:28:45;;;;;;;;;;;;;;;;;;;;;
2024/01/30 22:32:40;;;;;;;77.40;32.70;;;;;;;1.23;72.43;101697.93;128096;1274;114915;-64
2024/01/30 22:36:42;;;;;;;65.40;28.30;;;;;;;1.22;72.45;101702.85;127605;1292;114950;-64
2024/01/30 22:39:57;;;;;;;68.50;29.60;;;;;;;1.21;72.78;101703.71;122227;1316;114883;-63
2024/01/30 22:43:50;;;;;;;64.20;26.60;;;;;;;1.21;72.69;101704.60;125885;1307;115284;-63
2024/01/30 22:47:51;;;;;;;59.50;27.10;;;;;;;1.20;72.82;101704.41;125396;1320;114785;-64
2024/01/30 22:51:51;;;;;;;53.90;23.00;;;;;;;1.20;72.84;101709.70;124151;1332;129877;-64
2024/01/30 23:00:39;;;;;;;46.00;23.70;;;;;;;1.22;72.94;101716.05;126470;1295;635472;-64
2024/01/30 23:04:14;;;;;;;49.90;21.90;;;;;;;1.19;73.08;101716.54;128022;1282;128603;-63
2024/01/30 23:08:06;;;;;;;50.40;23.50;;;;;;;1.18;73.37;101717.92;126591;1290;115118;-63
2024/01/30 23:12:07;;;;;;;53.20;26.00;;;;;;;1.17;73.52;101718.98;122992;1312;5451859;-64
2024/01/30 23:16:08;;;;;;;52.20;24.70;;;;;;;1.16;73.65;101707.36;124671;1329;114995;-65
2024/01/30 23:24:34;;;;;;;59.50;28.20;;;;;;;1.22;73.80;101706.01;125523;1302;635905;-63
2024/01/30 23:36:43;;;;;;;92.80;37.40;;;;;;;1.23;74.17;101722.92;121637;1304;5429074;-65
2024/01/30 23:40:45;;;;;;;102.30;37.90;;;;;;;1.23;74.34;101729.44;123779;1319;114854;-65
2024/01/30 23:49:05;;;;;;;114.20;42.80;;;;;;;1.29;74.60;101725.79;125714;1302;635923;-63
2024/01/30 23:57:10;;;;;;;100.90;40.50;;;;;;;1.33;74.63;101725.85;127274;1288;114847;-65
